sensor_id;sensor_type;location;lat;lon;timestamp;P1;durP1;ratioP1;P2;durP2;ratioP2
17566;SDS011;8901;52.088;5.084;2023-03-01T00:02:12;17.47;;;15.27;;
17566;SDS011;8901;52.088;5.084;2023-03-01T00:04:39;16.53;;;14.90;;
17566;SDS011;8901;52.088;5.084;2023-03-01T00:07:07;18.13;;;16.33;;
17566;SDS011;8901;52.088;5.084;2023-03-01T00:09:35;17.87;;;16.07;;
17566;SDS011;8901;52.088;5.084;2023-03-01T00:12:04;16.47;;;14.77;;
17566;SDS011;8901;52.088;5.084;2023-03-01T00:14:32;16.60;;;14.90;;
17566;SDS011;8901;52.088;5.084;2023-03-01T00:16:59;17.30;;;15.60;;
17566;SDS011;8901;52.088;5.084;2023-03-01T00:19:29;16.83;;;15.20;;
17566;SDS011;8901;52.088;5.084;2023-03-01T00:21:57;16.90;;;15.30;;
17566;SDS011;8901;52.088;5.084;2023-03-01T00:24:24;18.27;;;16.37;;
17566;SDS011;8901;52.088;5.084;2023-03-01T00:26:52;18.00;;;16.07;;
17566;SDS011;8901;52.088;5.084;2023-03-01T00:29:23;16.73;;;14.87;;
17566;SDS011;8901;52.088;5.084;2023-03-01T00:31:50;16.87;;;15.27;;
17566;SDS011;8901;52.088;5.084;2023-03-01T00:34:17;17.57;;;15.77;;
17566;SDS011;8901;52.088;5.084;2023-03-01T00:36:44;16.13;;;14.43;;
17566;SDS011;8901;52.088;5.084;2023-03-01T00:39:12;16.17;;;14.43;;
17566;SDS011;8901;52.088;5.084;2023-03-01T00:41:39;17.80;;;16.10;;
17566;SDS011;8901;52.088;5.084;2023-03-01T00:44:07;16.90;;;15.07;;
17566;SDS011;8901;52.088;5.084;2023-03-01T00:46:35;16.63;;;14.73;;
17566;SDS011;8901;52.088;5.084;2023-03-01T00:49:03;17.27;;;15.70;;
17566;SDS011;8901;52.088;5.084;2023-03-01T00:51:30;17.23;;;15.43;;
17566;SDS011;8901;52.088;5.084;2023-03-01T00:53:58;16.23;;;14.83;;
17566;SDS011;8901;52.088;5.084;2023-03-01T00:56:26;16.97;;;15.27;;
17566;SDS011;8901;52.088;5.084;2023-03-01T00:58:55;16.30;;;14.73;;
17566;SDS011;8901;52.088;5.084;2023-03-01T01:01:24;16.67;;;15.00;;
17566;SDS011;8901;52.088;5.084;2023-03-01T01:03:54;17.77;;;15.83;;
17566;SDS011;8901;52.088;5.084;2023-03-01T01:06:23;16.23;;;14.73;;
17566;SDS011;8901;52.088;5.084;2023-03-01T01:08:51;16.60;;;15.00;;
17566;SDS011;8901;52.088;5.084;2023-03-01T01:11:19;16.37;;;14.90;;
17566;SDS011;8901;52.088;5.084;2023-03-01T01:13:46;16.93;;;15.20;;
17566;SDS011;8901;52.088;5.084;2023-03-01T01:16:14;15.83;;;14.33;;
17566;SDS011;8901;52.088;5.084;2023-03-01T01:18:41;17.33;;;15.63;;
17566;SDS011;8901;52.088;5.084;2023-03-01T01:21:18;16.93;;;15.23;;
17566;SDS011;8901;52.088;5.084;2023-03-01T01:23:46;17.43;;;15.77;;
17566;SDS011;8901;52.088;5.084;2023-03-01T01:26:14;17.03;;;15.43;;
17566;SDS011;8901;52.088;5.084;2023-03-01T01:28:42;17.87;;;16.27;;
17566;SDS011;8901;52.088;5.084;2023-03-01T01:31:10;17.43;;;15.50;;
17566;SDS011;8901;52.088;5.084;2023-03-01T01:33:39;17.93;;;16.23;;
17566;SDS011;8901;52.088;5.084;2023-03-01T01:36:07;16.93;;;15.33;;
17566;SDS011;8901;52.088;5.084;2023-03-01T01:38:36;16.13;;;14.43;;
17566;SDS011;8901;52.088;5.084;2023-03-01T01:41:04;17.00;;;15.40;;
17566;SDS011;8901;52.088;5.084;2023-03-01T01:43:41;17.37;;;15.53;;
17566;SDS011;8901;52.088;5.084;2023-03-01T01:46:13;18.60;;;16.77;;
17566;SDS011;8901;52.088;5.084;2023-03-01T02:06:18;18.07;;;16.37;;
17566;SDS011;8901;52.088;5.084;2023-03-01T02:08:52;19.95;;;18.05;;
17566;SDS011;8901;52.088;5.084;2023-03-01T02:11:22;21.23;;;17.70;;
17566;SDS011;8901;52.088;5.084;2023-03-01T02:13:50;17.87;;;16.17;;
17566;SDS011;8901;52.088;5.084;2023-03-01T02:22:12;17.57;;;15.70;;
17566;SDS011;8901;52.088;5.084;2023-03-01T02:24:43;18.83;;;17.03;;
17566;SDS011;8901;52.088;5.084;2023-03-01T02:27:17;18.63;;;16.83;;
17566;SDS011;8901;52.088;5.084;2023-03-01T02:29:51;19.13;;;17.13;;
17566;SDS011;8901;52.088;5.084;2023-03-01T02:32:18;18.83;;;17.03;;
17566;SDS011;8901;52.088;5.084;2023-03-01T02:34:50;18.30;;;16.40;;
17566;SDS011;8901;52.088;5.084;2023-03-01T02:37:17;19.00;;;16.30;;
17566;SDS011;8901;52.088;5.084;2023-03-01T02:39:50;19.17;;;17.23;;
17566;SDS011;8901;52.088;5.084;2023-03-01T02:42:20;18.20;;;16.40;;
17566;SDS011;8901;52.088;5.084;2023-03-01T02:44:48;19.27;;;17.30;;
17566;SDS011;8901;52.088;5.084;2023-03-01T02:47:17;18.83;;;16.93;;
17566;SDS011;8901;52.088;5.084;2023-03-01T02:49:44;19.20;;;17.27;;
17566;SDS011;8901;52.088;5.084;2023-03-01T02:52:18;18.60;;;16.77;;
17566;SDS011;8901;52.088;5.084;2023-03-01T02:54:48;19.10;;;17.13;;
17566;SDS011;8901;52.088;5.084;2023-03-01T02:57:17;18.53;;;16.57;;
17566;SDS011;8901;52.088;5.084;2023-03-01T02:59:47;18.70;;;16.83;;
17566;SDS011;8901;52.088;5.084;2023-03-01T03:02:20;18.40;;;16.50;;
17566;SDS011;8901;52.088;5.084;2023-03-01T03:05:01;19.60;;;17.23;;
17566;SDS011;8901;52.088;5.084;2023-03-01T03:07:28;19.43;;;17.40;;
17566;SDS011;8901;52.088;5.084;2023-03-01T03:09:58;19.33;;;17.33;;
17566;SDS011;8901;52.088;5.084;2023-03-01T03:12:26;19.70;;;17.73;;
17566;SDS011;8901;52.088;5.084;2023-03-01T03:14:53;19.83;;;17.77;;
17566;SDS011;8901;52.088;5.084;2023-03-01T03:17:22;22.10;;;18.23;;
17566;SDS011;8901;52.088;5.084;2023-03-01T03:19:49;19.20;;;17.20;;
17566;SDS011;8901;52.088;5.084;2023-03-01T03:22:17;20.23;;;18.27;;
17566;SDS011;8901;52.088;5.084;2023-03-01T03:24:44;19.77;;;17.77;;
17566;SDS011;8901;52.088;5.084;2023-03-01T03:27:11;20.07;;;18.13;;
17566;SDS011;8901;52.088;5.084;2023-03-01T03:29:41;20.87;;;18.77;;
17566;SDS011;8901;52.088;5.084;2023-03-01T03:32:08;20.23;;;18.13;;
17566;SDS011;8901;52.088;5.084;2023-03-01T03:34:37;21.53;;;19.27;;
17566;SDS011;8901;52.088;5.084;2023-03-01T03:37:04;20.03;;;18.20;;
17566;SDS011;8901;52.088;5.084;2023-03-01T03:39:52;20.73;;;18.70;;
17566;SDS011;8901;52.088;5.084;2023-03-01T03:42:20;21.23;;;19.13;;
17566;SDS011;8901;52.088;5.084;2023-03-01T03:44:47;20.93;;;18.73;;
17566;SDS011;8901;52.088;5.084;2023-03-01T03:47:15;20.87;;;18.80;;
17566;SDS011;8901;52.088;5.084;2023-03-01T03:49:43;20.73;;;18.83;;
17566;SDS011;8901;52.088;5.084;2023-03-01T03:52:11;22.07;;;19.73;;
17566;SDS011;8901;52.088;5.084;2023-03-01T03:54:39;21.53;;;19.53;;
17566;SDS011;8901;52.088;5.084;2023-03-01T03:57:06;21.80;;;19.70;;
17566;SDS011;8901;52.088;5.084;2023-03-01T03:59:34;22.73;;;20.53;;
17566;SDS011;8901;52.088;5.084;2023-03-01T04:02:01;22.20;;;20.20;;
17566;SDS011;8901;52.088;5.084;2023-03-01T04:04:29;21.60;;;19.30;;
17566;SDS011;8901;52.088;5.084;2023-03-01T04:06:57;23.30;;;21.10;;
17566;SDS011;8901;52.088;5.084;2023-03-01T04:09:27;23.20;;;21.00;;
17566;SDS011;8901;52.088;5.084;2023-03-01T04:11:55;22.90;;;20.83;;
17566;SDS011;8901;52.088;5.084;2023-03-01T04:14:22;22.47;;;20.33;;
17566;SDS011;8901;52.088;5.084;2023-03-01T04:16:49;22.03;;;20.13;;
17566;SDS011;8901;52.088;5.084;2023-03-01T04:19:16;23.70;;;21.37;;
17566;SDS011;8901;52.088;5.084;2023-03-01T04:21:44;23.10;;;20.87;;
17566;SDS011;8901;52.088;5.084;2023-03-01T04:24:12;23.33;;;21.20;;
17566;SDS011;8901;52.088;5.084;2023-03-01T04:26:40;23.37;;;21.27;;
17566;SDS011;8901;52.088;5.084;2023-03-01T04:29:07;23.70;;;21.30;;
17566;SDS011;8901;52.088;5.084;2023-03-01T04:31:34;23.23;;;20.90;;
17566;SDS011;8901;52.088;5.084;2023-03-01T04:34:02;24.13;;;21.90;;
17566;SDS011;8901;52.088;5.084;2023-03-01T04:36:29;22.00;;;19.83;;
17566;SDS011;8901;52.088;5.084;2023-03-01T04:38:56;22.57;;;20.47;;
17566;SDS011;8901;52.088;5.084;2023-03-01T04:41:25;22.23;;;20.23;;
17566;SDS011;8901;52.088;5.084;2023-03-01T04:43:53;24.33;;;21.73;;
17566;SDS011;8901;52.088;5.084;2023-03-01T04:46:25;22.57;;;20.47;;
17566;SDS011;8901;52.088;5.084;2023-03-01T04:48:52;22.50;;;20.47;;
17566;SDS011;8901;52.088;5.084;2023-03-01T04:51:19;23.03;;;20.93;;
17566;SDS011;8901;52.088;5.084;2023-03-01T04:53:46;23.13;;;20.93;;
17566;SDS011;8901;52.088;5.084;2023-03-01T04:56:14;24.60;;;22.30;;
17566;SDS011;8901;52.088;5.084;2023-03-01T04:58:44;23.40;;;21.30;;
17566;SDS011;8901;52.088;5.084;2023-03-01T05:01:12;23.23;;;21.33;;
17566;SDS011;8901;52.088;5.084;2023-03-01T05:03:44;22.10;;;20.20;;
17566;SDS011;8901;52.088;5.084;2023-03-01T05:06:11;23.60;;;21.50;;
17566;SDS011;8901;52.088;5.084;2023-03-01T05:08:39;22.33;;;20.40;;
17566;SDS011;8901;52.088;5.084;2023-03-01T05:11:06;23.07;;;20.93;;
17566;SDS011;8901;52.088;5.084;2023-03-01T05:13:35;23.07;;;21.07;;
17566;SDS011;8901;52.088;5.084;2023-03-01T05:16:05;22.17;;;20.17;;
17566;SDS011;8901;52.088;5.084;2023-03-01T05:18:36;24.17;;;22.00;;
17566;SDS011;8901;52.088;5.084;2023-03-01T05:21:06;23.10;;;20.80;;
17566;SDS011;8901;52.088;5.084;2023-03-01T05:23:33;21.73;;;19.63;;
17566;SDS011;8901;52.088;5.084;2023-03-01T05:26:01;23.07;;;20.97;;
17566;SDS011;8901;52.088;5.084;2023-03-01T05:28:31;22.87;;;20.53;;
17566;SDS011;8901;52.088;5.084;2023-03-01T05:30:59;23.47;;;21.37;;
17566;SDS011;8901;52.088;5.084;2023-03-01T05:33:27;23.03;;;20.90;;
17566;SDS011;8901;52.088;5.084;2023-03-01T05:35:59;24.10;;;21.80;;
17566;SDS011;8901;52.088;5.084;2023-03-01T05:38:26;22.73;;;20.43;;
17566;SDS011;8901;52.088;5.084;2023-03-01T05:40:53;24.07;;;21.77;;
17566;SDS011;8901;52.088;5.084;2023-03-01T05:43:23;24.13;;;21.47;;
17566;SDS011;8901;52.088;5.084;2023-03-01T05:45:50;23.43;;;21.07;;
17566;SDS011;8901;52.088;5.084;2023-03-01T05:48:18;23.70;;;21.23;;
17566;SDS011;8901;52.088;5.084;2023-03-01T05:50:47;23.70;;;21.20;;
17566;SDS011;8901;52.088;5.084;2023-03-01T05:53:14;25.30;;;21.43;;
17566;SDS011;8901;52.088;5.084;2023-03-01T05:55:43;24.23;;;21.73;;
17566;SDS011;8901;52.088;5.084;2023-03-01T05:58:13;22.33;;;19.97;;
17566;SDS011;8901;52.088;5.084;2023-03-01T06:00:40;23.80;;;21.03;;
17566;SDS011;8901;52.088;5.084;2023-03-01T06:03:09;24.47;;;20.03;;
17566;SDS011;8901;52.088;5.084;2023-03-01T06:05:36;22.40;;;19.03;;
17566;SDS011;8901;52.088;5.084;2023-03-01T06:08:06;22.23;;;19.30;;
17566;SDS011;8901;52.088;5.084;2023-03-01T06:10:33;22.57;;;19.40;;
17566;SDS011;8901;52.088;5.084;2023-03-01T06:13:00;19.67;;;17.67;;
17566;SDS011;8901;52.088;5.084;2023-03-01T06:15:28;20.97;;;18.43;;
17566;SDS011;8901;52.088;5.084;2023-03-01T06:17:55;20.07;;;17.27;;
17566;SDS011;8901;52.088;5.084;2023-03-01T06:20:24;20.30;;;17.50;;
17566;SDS011;8901;52.088;5.084;2023-03-01T06:22:57;21.63;;;17.53;;
17566;SDS011;8901;52.088;5.084;2023-03-01T06:25:26;18.57;;;16.67;;
17566;SDS011;8901;52.088;5.084;2023-03-01T06:27:54;18.43;;;16.47;;
17566;SDS011;8901;52.088;5.084;2023-03-01T06:30:22;20.37;;;16.00;;
17566;SDS011;8901;52.088;5.084;2023-03-01T06:32:52;18.20;;;16.10;;
17566;SDS011;8901;52.088;5.084;2023-03-01T06:35:25;18.63;;;16.80;;
17566;SDS011;8901;52.088;5.084;2023-03-01T06:37:55;18.20;;;16.30;;
17566;SDS011;8901;52.088;5.084;2023-03-01T06:40:22;20.43;;;18.23;;
17566;SDS011;8901;52.088;5.084;2023-03-01T06:42:51;19.40;;;17.50;;
17566;SDS011;8901;52.088;5.084;2023-03-01T06:45:19;19.77;;;16.97;;
17566;SDS011;8901;52.088;5.084;2023-03-01T06:47:46;19.17;;;17.20;;
17566;SDS011;8901;52.088;5.084;2023-03-01T06:50:14;20.20;;;18.03;;
17566;SDS011;8901;52.088;5.084;2023-03-01T06:52:42;20.90;;;18.63;;
17566;SDS011;8901;52.088;5.084;2023-03-01T06:55:09;18.20;;;16.37;;
17566;SDS011;8901;52.088;5.084;2023-03-01T06:57:37;20.57;;;16.23;;
17566;SDS011;8901;52.088;5.084;2023-03-01T07:00:06;19.80;;;17.07;;
17566;SDS011;8901;52.088;5.084;2023-03-01T07:05:35;20.03;;;17.40;;
17566;SDS011;8901;52.088;5.084;2023-03-01T07:08:03;19.40;;;17.10;;
17566;SDS011;8901;52.088;5.084;2023-03-01T07:10:30;19.00;;;17.03;;
17566;SDS011;8901;52.088;5.084;2023-03-01T07:12:57;19.57;;;17.47;;
17566;SDS011;8901;52.088;5.084;2023-03-01T07:15:27;20.23;;;16.87;;
17566;SDS011;8901;52.088;5.084;2023-03-01T07:17:54;20.13;;;16.47;;
17566;SDS011;8901;52.088;5.084;2023-03-01T07:20:22;22.43;;;18.23;;
17566;SDS011;8901;52.088;5.084;2023-03-01T07:22:50;20.47;;;17.83;;
17566;SDS011;8901;52.088;5.084;2023-03-01T07:25:17;21.60;;;17.37;;
17566;SDS011;8901;52.088;5.084;2023-03-01T07:27:48;21.73;;;18.77;;
17566;SDS011;8901;52.088;5.084;2023-03-01T07:30:16;20.60;;;18.37;;
17566;SDS011;8901;52.088;5.084;2023-03-01T07:32:45;20.13;;;17.73;;
17566;SDS011;8901;52.088;5.084;2023-03-01T07:35:12;21.00;;;18.40;;
17566;SDS011;8901;52.088;5.084;2023-03-01T07:37:39;21.20;;;17.73;;
17566;SDS011;8901;52.088;5.084;2023-03-01T07:40:07;20.00;;;17.90;;
17566;SDS011;8901;52.088;5.084;2023-03-01T07:42:34;21.13;;;18.30;;
17566;SDS011;8901;52.088;5.084;2023-03-01T07:45:02;21.00;;;18.90;;
17566;SDS011;8901;52.088;5.084;2023-03-01T07:47:29;19.70;;;17.63;;
17566;SDS011;8901;52.088;5.084;2023-03-01T07:49:58;20.50;;;18.00;;
17566;SDS011;8901;52.088;5.084;2023-03-01T07:52:26;21.80;;;17.23;;
17566;SDS011;8901;52.088;5.084;2023-03-01T07:54:53;20.00;;;17.90;;
17566;SDS011;8901;52.088;5.084;2023-03-01T07:57:20;19.63;;;17.63;;
17566;SDS011;8901;52.088;5.084;2023-03-01T07:59:47;20.73;;;18.53;;
17566;SDS011;8901;52.088;5.084;2023-03-01T08:02:15;17.77;;;15.97;;
17566;SDS011;8901;52.088;5.084;2023-03-01T08:04:42;20.07;;;17.97;;
17566;SDS011;8901;52.088;5.084;2023-03-01T08:07:10;19.40;;;17.00;;
17566;SDS011;8901;52.088;5.084;2023-03-01T08:09:38;20.03;;;18.33;;
17566;SDS011;8901;52.088;5.084;2023-03-01T08:12:05;19.33;;;17.83;;
17566;SDS011;8901;52.088;5.084;2023-03-01T08:14:32;20.60;;;18.70;;
17566;SDS011;8901;52.088;5.084;2023-03-01T08:16:59;20.10;;;18.27;;
17566;SDS011;8901;52.088;5.084;2023-03-01T08:19:28;19.10;;;17.50;;
17566;SDS011;8901;52.088;5.084;2023-03-01T08:21:55;20.63;;;18.93;;
17566;SDS011;8901;52.088;5.084;2023-03-01T08:24:24;22.40;;;20.43;;
17566;SDS011;8901;52.088;5.084;2023-03-01T08:26:52;22.10;;;20.30;;
17566;SDS011;8901;52.088;5.084;2023-03-01T08:29:19;22.67;;;20.67;;
17566;SDS011;8901;52.088;5.084;2023-03-01T08:31:46;22.13;;;20.30;;
17566;SDS011;8901;52.088;5.084;2023-03-01T08:34:14;22.30;;;20.57;;
17566;SDS011;8901;52.088;5.084;2023-03-01T08:36:43;23.27;;;21.23;;
17566;SDS011;8901;52.088;5.084;2023-03-01T08:39:11;23.40;;;21.50;;
17566;SDS011;8901;52.088;5.084;2023-03-01T08:41:39;24.87;;;22.77;;
17566;SDS011;8901;52.088;5.084;2023-03-01T08:44:07;23.17;;;21.23;;
17566;SDS011;8901;52.088;5.084;2023-03-01T08:46:35;22.33;;;20.53;;
17566;SDS011;8901;52.088;5.084;2023-03-01T08:49:03;23.27;;;21.47;;
17566;SDS011;8901;52.088;5.084;2023-03-01T08:51:30;23.53;;;21.73;;
17566;SDS011;8901;52.088;5.084;2023-03-01T08:54:01;22.70;;;20.90;;
17566;SDS011;8901;52.088;5.084;2023-03-01T08:56:28;23.03;;;21.23;;
17566;SDS011;8901;52.088;5.084;2023-03-01T08:58:57;21.43;;;19.73;;
17566;SDS011;8901;52.088;5.084;2023-03-01T09:01:24;19.03;;;17.43;;
17566;SDS011;8901;52.088;5.084;2023-03-01T09:03:51;18.53;;;17.00;;
17566;SDS011;8901;52.088;5.084;2023-03-01T09:06:19;18.43;;;16.83;;
17566;SDS011;8901;52.088;5.084;2023-03-01T09:08:47;16.80;;;15.50;;
17566;SDS011;8901;52.088;5.084;2023-03-01T09:11:16;19.03;;;17.10;;
17566;SDS011;8901;52.088;5.084;2023-03-01T09:13:44;18.90;;;17.40;;
17566;SDS011;8901;52.088;5.084;2023-03-01T09:16:13;18.70;;;17.20;;
17566;SDS011;8901;52.088;5.084;2023-03-01T09:18:41;19.83;;;17.80;;
17566;SDS011;8901;52.088;5.084;2023-03-01T09:21:09;18.70;;;17.20;;
17566;SDS011;8901;52.088;5.084;2023-03-01T09:23:40;18.37;;;16.77;;
17566;SDS011;8901;52.088;5.084;2023-03-01T09:26:07;18.27;;;16.80;;
17566;SDS011;8901;52.088;5.084;2023-03-01T09:28:35;19.20;;;17.60;;
17566;SDS011;8901;52.088;5.084;2023-03-01T09:31:03;22.33;;;20.20;;
17566;SDS011;8901;52.088;5.084;2023-03-01T09:33:33;17.93;;;16.30;;
17566;SDS011;8901;52.088;5.084;2023-03-01T09:36:01;19.57;;;17.97;;
17566;SDS011;8901;52.088;5.084;2023-03-01T09:38:29;19.23;;;17.70;;
17566;SDS011;8901;52.088;5.084;2023-03-01T09:40:56;18.37;;;16.87;;
17566;SDS011;8901;52.088;5.084;2023-03-01T09:43:25;16.70;;;15.40;;
17566;SDS011;8901;52.088;5.084;2023-03-01T09:45:54;19.17;;;17.47;;
17566;SDS011;8901;52.088;5.084;2023-03-01T09:48:30;17.97;;;16.50;;
17566;SDS011;8901;52.088;5.084;2023-03-01T09:51:01;17.10;;;15.70;;
17566;SDS011;8901;52.088;5.084;2023-03-01T09:53:31;19.23;;;17.30;;
17566;SDS011;8901;52.088;5.084;2023-03-01T09:56:01;18.30;;;17.00;;
17566;SDS011;8901;52.088;5.084;2023-03-01T09:58:37;16.77;;;15.57;;
17566;SDS011;8901;52.088;5.084;2023-03-01T10:01:15;18.30;;;16.83;;
17566;SDS011;8901;52.088;5.084;2023-03-01T10:03:50;18.53;;;17.07;;
17566;SDS011;8901;52.088;5.084;2023-03-01T10:06:23;18.23;;;16.93;;
17566;SDS011;8901;52.088;5.084;2023-03-01T10:08:51;18.43;;;16.80;;
17566;SDS011;8901;52.088;5.084;2023-03-01T10:11:21;17.90;;;16.50;;
17566;SDS011;8901;52.088;5.084;2023-03-01T10:13:50;18.43;;;16.83;;
17566;SDS011;8901;52.088;5.084;2023-03-01T10:16:21;17.33;;;16.13;;
17566;SDS011;8901;52.088;5.084;2023-03-01T10:18:51;17.70;;;16.40;;
17566;SDS011;8901;52.088;5.084;2023-03-01T10:21:20;17.27;;;15.97;;
17566;SDS011;8901;52.088;5.084;2023-03-01T10:23:50;18.63;;;17.43;;
17566;SDS011;8901;52.088;5.084;2023-03-01T10:26:32;17.03;;;15.87;;
17566;SDS011;8901;52.088;5.084;2023-03-01T10:29:03;18.13;;;16.83;;
17566;SDS011;8901;52.088;5.084;2023-03-01T10:31:36;18.00;;;16.60;;
17566;SDS011;8901;52.088;5.084;2023-03-01T10:34:07;18.20;;;16.70;;
17566;SDS011;8901;52.088;5.084;2023-03-01T10:36:34;17.70;;;16.37;;
17566;SDS011;8901;52.088;5.084;2023-03-01T10:41:37;18.03;;;16.53;;
17566;SDS011;8901;52.088;5.084;2023-03-01T10:44:11;18.60;;;17.33;;
17566;SDS011;8901;52.088;5.084;2023-03-01T10:46:59;18.70;;;17.40;;
17566;SDS011;8901;52.088;5.084;2023-03-01T10:49:27;18.53;;;17.33;;
17566;SDS011;8901;52.088;5.084;2023-03-01T10:51:54;18.07;;;16.70;;
17566;SDS011;8901;52.088;5.084;2023-03-01T10:54:22;19.57;;;18.10;;
17566;SDS011;8901;52.088;5.084;2023-03-01T10:56:51;17.43;;;16.13;;
17566;SDS011;8901;52.088;5.084;2023-03-01T10:59:21;18.47;;;17.17;;
17566;SDS011;8901;52.088;5.084;2023-03-01T11:02:00;19.20;;;17.80;;
17566;SDS011;8901;52.088;5.084;2023-03-01T11:04:28;18.70;;;17.40;;
17566;SDS011;8901;52.088;5.084;2023-03-01T11:06:57;19.67;;;18.37;;
17566;SDS011;8901;52.088;5.084;2023-03-01T11:09:25;19.40;;;18.00;;
17566;SDS011;8901;52.088;5.084;2023-03-01T11:11:54;18.83;;;17.57;;
17566;SDS011;8901;52.088;5.084;2023-03-01T11:14:22;19.60;;;18.17;;
17566;SDS011;8901;52.088;5.084;2023-03-01T11:16:57;19.97;;;18.57;;
17566;SDS011;8901;52.088;5.084;2023-03-01T11:19:25;19.63;;;18.23;;
17566;SDS011;8901;52.088;5.084;2023-03-01T11:21:54;18.67;;;17.37;;
17566;SDS011;8901;52.088;5.084;2023-03-01T11:24:24;18.80;;;17.20;;
17566;SDS011;8901;52.088;5.084;2023-03-01T11:26:54;18.63;;;17.27;;
17566;SDS011;8901;52.088;5.084;2023-03-01T11:29:26;20.13;;;18.50;;
17566;SDS011;8901;52.088;5.084;2023-03-01T11:31:55;18.30;;;16.90;;
17566;SDS011;8901;52.088;5.084;2023-03-01T11:34:24;19.07;;;17.77;;
17566;SDS011;8901;52.088;5.084;2023-03-01T11:36:56;19.67;;;18.13;;
17566;SDS011;8901;52.088;5.084;2023-03-01T11:39:26;19.37;;;17.97;;
17566;SDS011;8901;52.088;5.084;2023-03-01T11:41:59;18.10;;;16.80;;
17566;SDS011;8901;52.088;5.084;2023-03-01T11:44:29;18.73;;;17.33;;
17566;SDS011;8901;52.088;5.084;2023-03-01T11:47:05;18.70;;;17.40;;
17566;SDS011;8901;52.088;5.084;2023-03-01T11:49:40;19.50;;;18.07;;
17566;SDS011;8901;52.088;5.084;2023-03-01T11:52:13;19.03;;;17.53;;
17566;SDS011;8901;52.088;5.084;2023-03-01T11:54:49;18.30;;;16.90;;
17566;SDS011;8901;52.088;5.084;2023-03-01T11:57:20;19.47;;;18.07;;
17566;SDS011;8901;52.088;5.084;2023-03-01T12:02:58;19.20;;;17.63;;
17566;SDS011;8901;52.088;5.084;2023-03-01T12:08:14;19.10;;;17.90;;
17566;SDS011;8901;52.088;5.084;2023-03-01T12:10:47;19.50;;;18.23;;
17566;SDS011;8901;52.088;5.084;2023-03-01T12:16:06;19.17;;;17.77;;
17566;SDS011;8901;52.088;5.084;2023-03-01T12:18:48;19.13;;;17.83;;
17566;SDS011;8901;52.088;5.084;2023-03-01T12:21:21;18.70;;;17.50;;
17566;SDS011;8901;52.088;5.084;2023-03-01T12:24:05;18.80;;;17.50;;
17566;SDS011;8901;52.088;5.084;2023-03-01T12:26:35;19.00;;;17.70;;
17566;SDS011;8901;52.088;5.084;2023-03-01T12:29:12;18.90;;;17.63;;
17566;SDS011;8901;52.088;5.084;2023-03-01T12:31:50;19.03;;;17.70;;
17566;SDS011;8901;52.088;5.084;2023-03-01T12:34:25;18.00;;;16.83;;
17566;SDS011;8901;52.088;5.084;2023-03-01T12:36:59;18.87;;;17.67;;
17566;SDS011;8901;52.088;5.084;2023-03-01T12:39:33;17.97;;;16.87;;
17566;SDS011;8901;52.088;5.084;2023-03-01T12:42:04;18.97;;;17.67;;
17566;SDS011;8901;52.088;5.084;2023-03-01T12:44:37;17.97;;;16.77;;
17566;SDS011;8901;52.088;5.084;2023-03-01T12:47:14;17.80;;;16.70;;
17566;SDS011;8901;52.088;5.084;2023-03-01T12:49:44;18.60;;;17.40;;
17566;SDS011;8901;52.088;5.084;2023-03-01T12:52:13;17.73;;;16.53;;
17566;SDS011;8901;52.088;5.084;2023-03-01T12:54:41;18.47;;;17.27;;
17566;SDS011;8901;52.088;5.084;2023-03-01T12:57:12;17.63;;;16.50;;
17566;SDS011;8901;52.088;5.084;2023-03-01T12:59:43;18.60;;;17.23;;
17566;SDS011;8901;52.088;5.084;2023-03-01T13:02:15;18.00;;;16.90;;
17566;SDS011;8901;52.088;5.084;2023-03-01T13:04:52;18.90;;;17.70;;
17566;SDS011;8901;52.088;5.084;2023-03-01T13:07:23;19.93;;;18.57;;
17566;SDS011;8901;52.088;5.084;2023-03-01T13:09:55;19.60;;;18.30;;
17566;SDS011;8901;52.088;5.084;2023-03-01T13:12:45;19.37;;;17.87;;
17566;SDS011;8901;52.088;5.084;2023-03-01T13:15:28;19.60;;;18.30;;
17566;SDS011;8901;52.088;5.084;2023-03-01T13:17:58;19.00;;;17.70;;
17566;SDS011;8901;52.088;5.084;2023-03-01T13:20:28;19.57;;;18.27;;
17566;SDS011;8901;52.088;5.084;2023-03-01T13:23:04;19.10;;;17.80;;
17566;SDS011;8901;52.088;5.084;2023-03-01T13:30:57;19.17;;;17.87;;
17566;SDS011;8901;52.088;5.084;2023-03-01T13:39:25;18.70;;;17.60;;
17566;SDS011;8901;52.088;5.084;2023-03-01T13:41:58;18.37;;;17.07;;
17566;SDS011;8901;52.088;5.084;2023-03-01T13:44:32;17.10;;;15.97;;
17566;SDS011;8901;52.088;5.084;2023-03-01T13:49:43;19.10;;;17.70;;
17566;SDS011;8901;52.088;5.084;2023-03-01T13:52:23;19.13;;;17.83;;
17566;SDS011;8901;52.088;5.084;2023-03-01T13:54:57;18.20;;;17.00;;
17566;SDS011;8901;52.088;5.084;2023-03-01T13:57:28;18.73;;;17.53;;
17566;SDS011;8901;52.088;5.084;2023-03-01T14:02:41;18.10;;;17.00;;
17566;SDS011;8901;52.088;5.084;2023-03-01T14:05:13;18.63;;;17.40;;
17566;SDS011;8901;52.088;5.084;2023-03-01T14:07:42;18.50;;;17.40;;
17566;SDS011;8901;52.088;5.084;2023-03-01T14:10:12;18.03;;;16.73;;
17566;SDS011;8901;52.088;5.084;2023-03-01T14:12:40;18.47;;;17.10;;
17566;SDS011;8901;52.088;5.084;2023-03-01T14:15:14;20.03;;;18.50;;
17566;SDS011;8901;52.088;5.084;2023-03-01T14:17:59;18.63;;;17.53;;
17566;SDS011;8901;52.088;5.084;2023-03-01T14:20:32;19.07;;;17.80;;
17566;SDS011;8901;52.088;5.084;2023-03-01T14:23:02;19.90;;;18.30;;
17566;SDS011;8901;52.088;5.084;2023-03-01T14:25:48;18.60;;;17.00;;
17566;SDS011;8901;52.088;5.084;2023-03-01T14:28:23;18.60;;;17.40;;
17566;SDS011;8901;52.088;5.084;2023-03-01T14:31:01;18.73;;;17.43;;
17566;SDS011;8901;52.088;5.084;2023-03-01T14:33:34;18.70;;;17.40;;
17566;SDS011;8901;52.088;5.084;2023-03-01T14:36:07;17.70;;;16.50;;
17566;SDS011;8901;52.088;5.084;2023-03-01T14:38:48;17.87;;;16.67;;
17566;SDS011;8901;52.088;5.084;2023-03-01T14:41:21;17.33;;;16.13;;
17566;SDS011;8901;52.088;5.084;2023-03-01T14:43:52;18.60;;;17.27;;
17566;SDS011;8901;52.088;5.084;2023-03-01T14:46:31;18.00;;;16.60;;
17566;SDS011;8901;52.088;5.084;2023-03-01T14:51:35;18.47;;;16.93;;
17566;SDS011;8901;52.088;5.084;2023-03-01T14:54:18;18.20;;;16.90;;
17566;SDS011;8901;52.088;5.084;2023-03-01T14:56:49;17.37;;;16.27;;
17566;SDS011;8901;52.088;5.084;2023-03-01T14:59:19;17.47;;;16.17;;
17566;SDS011;8901;52.088;5.084;2023-03-01T15:01:48;17.20;;;16.00;;
17566;SDS011;8901;52.088;5.084;2023-03-01T15:04:20;17.40;;;16.30;;
17566;SDS011;8901;52.088;5.084;2023-03-01T15:06:50;17.13;;;15.97;;
17566;SDS011;8901;52.088;5.084;2023-03-01T15:09:17;17.57;;;16.47;;
17566;SDS011;8901;52.088;5.084;2023-03-01T15:11:45;18.17;;;16.87;;
17566;SDS011;8901;52.088;5.084;2023-03-01T15:14:38;17.57;;;16.17;;
17566;SDS011;8901;52.088;5.084;2023-03-01T15:17:15;18.70;;;17.43;;
17566;SDS011;8901;52.088;5.084;2023-03-01T15:19:46;17.73;;;16.53;;
17566;SDS011;8901;52.088;5.084;2023-03-01T15:22:14;17.00;;;15.80;;
17566;SDS011;8901;52.088;5.084;2023-03-01T15:24:46;18.27;;;17.00;;
17566;SDS011;8901;52.088;5.084;2023-03-01T15:27:14;17.80;;;16.70;;
17566;SDS011;8901;52.088;5.084;2023-03-01T15:29:48;17.27;;;16.07;;
17566;SDS011;8901;52.088;5.084;2023-03-01T15:32:27;17.87;;;16.47;;
17566;SDS011;8901;52.088;5.084;2023-03-01T15:34:55;17.67;;;16.47;;
17566;SDS011;8901;52.088;5.084;2023-03-01T15:37:38;18.13;;;16.77;;
17566;SDS011;8901;52.088;5.084;2023-03-01T15:40:16;18.30;;;17.03;;
17566;SDS011;8901;52.088;5.084;2023-03-01T15:42:44;17.77;;;16.47;;
17566;SDS011;8901;52.088;5.084;2023-03-01T15:45:21;16.73;;;15.63;;
17566;SDS011;8901;52.088;5.084;2023-03-01T15:47:50;18.57;;;17.37;;